Time;durP1;ratioP1;P1;durP2;ratioP2;P2;SDS_P1;SDS_P2;PMS_P1;PMS_P2;Temp;Humidity;BMP_temperature;BMP_pressure;BME280_temperature;BME280_humidity;BME280_pressure;Samples;Min_cycle;Max_cycle;Signal;HPM_P1;HPM_P2
2022/10/21 00:00:32;;;;;;;18.60;15.18;;;;;;;12.69;100.00;100628.97;5280298;28;20032;-70
2022/10/21 00:03:03;;;;;;;19.58;14.77;;;;;;;12.61;100.00;100630.63;5276367;28;20036;-70
2022/10/21 00:05:34;;;;;;;22.50;15.77;;;;;;;12.55;100.00;100619.47;5274166;28;20497;-71
2022/10/21 00:08:06;;;;;;;20.95;14.73;;;;;;;12.62;100.00;100622.47;5265094;28;20460;-70
2022/10/21 00:10:37;;;;;;;27.02;15.82;;;;;;;12.52;100.00;100626.94;5272435;28;20119;-70
2022/10/21 00:13:08;;;;;;;16.23;13.38;;;;;;;12.53;100.00;100618.78;5270683;28;20028;-70
2022/10/21 00:15:40;;;;;;;19.52;14.52;;;;;;;12.53;100.00;100625.97;5272349;28;20024;-70
2022/10/21 00:18:11;;;;;;;18.05;14.40;;;;;;;12.36;100.00;100622.94;5271464;28;20478;-70
2022/10/21 00:20:42;;;;;;;20.05;13.98;;;;;;;12.33;100.00;100620.53;5274108;28;20390;-70
2022/10/21 00:23:14;;;;;;;19.67;14.63;;;;;;;12.27;100.00;100615.75;5269788;28;20520;-70
2022/10/21 00:25:45;;;;;;;18.10;12.88;;;;;;;12.47;100.00;100611.28;5267340;28;20103;-70
2022/10/21 00:28:16;;;;;;;18.60;13.90;;;;;;;12.30;100.00;100606.59;5268988;28;20052;-70
2022/10/21 00:30:48;;;;;;;22.35;14.73;;;;;;;12.29;100.00;100603.06;5275925;28;20028;-70
2022/10/21 00:33:19;;;;;;;18.38;14.10;;;;;;;12.37;100.00;100591.69;5269330;28;20025;-70
2022/10/21 00:35:53;;;;;;;20.40;14.15;;;;;;;12.32;100.00;100602.78;5275220;28;20051;-70
2022/10/21 00:38:24;;;;;;;23.48;15.02;;;;;;;12.21;100.00;100600.19;5267842;28;20024;-70
2022/10/21 00:40:56;;;;;;;18.73;14.82;;;;;;;12.24;100.00;100602.63;5273301;28;20642;-70
2022/10/21 00:43:27;;;;;;;20.73;15.77;;;;;;;12.28;100.00;100604.03;5266131;28;20075;-70
2022/10/21 00:46:02;;;;;;;26.67;18.13;;;;;;;12.31;100.00;100603.78;5271479;28;20039;-71
2022/10/21 00:48:39;;;;;;;27.42;17.60;;;;;;;12.41;100.00;100602.97;5269892;28;20031;-70
2022/10/21 00:51:16;;;;;;;29.38;18.70;;;;;;;12.34;100.00;100608.84;5272917;28;20032;-70
2022/10/21 00:53:49;;;;;;;27.27;18.92;;;;;;;12.32;100.00;100604.63;5271359;28;20111;-70
2022/10/21 00:56:25;;;;;;;30.15;19.67;;;;;;;12.42;100.00;100592.13;5266719;28;20394;-70
2022/10/21 00:58:59;;;;;;;28.02;18.52;;;;;;;12.35;100.00;100594.50;5269112;28;20028;-70
2022/10/21 01:01:31;;;;;;;26.90;18.80;;;;;;;12.38;100.00;100587.19;5258879;28;20033;-70
2022/10/21 01:04:02;;;;;;;26.77;18.38;;;;;;;12.44;100.00;100582.13;5271454;28;20033;-70
2022/10/21 01:06:35;;;;;;;27.27;17.08;;;;;;;12.36;100.00;100582.81;5272256;28;20547;-70
2022/10/21 01:09:07;;;;;;;26.75;19.10;;;;;;;12.40;100.00;100572.69;5274403;28;20024;-70
2022/10/21 01:11:42;;;;;;;34.22;19.80;;;;;;;12.44;100.00;100575.94;5270192;28;20115;-70
2022/10/21 01:14:49;;;;;;;29.92;18.50;;;;;;;12.42;100.00;100572.53;5272223;28;20487;-70
2022/10/21 01:17:42;;;;;;;30.45;17.20;;;;;;;12.41;100.00;100568.19;5267603;28;20037;-70
2022/10/21 01:20:13;;;;;;;29.52;19.33;;;;;;;12.42;100.00;100564.53;5271850;28;20606;-70
2022/10/21 01:22:57;;;;;;;33.03;19.55;;;;;;;12.39;100.00;100557.63;5271188;28;20036;-70
2022/10/21 01:25:48;;;;;;;30.42;17.90;;;;;;;12.45;100.00;100551.72;5273446;28;20715;-70
2022/10/21 01:28:41;;;;;;;24.42;17.17;;;;;;;12.43;100.00;100547.50;5279165;28;20029;-70
2022/10/21 01:31:14;;;;;;;27.33;17.58;;;;;;;12.39;100.00;100549.59;5292376;28;20090;-70
2022/10/21 01:34:02;;;;;;;25.30;17.23;;;;;;;12.39;100.00;100548.72;5270801;28;20028;-70
2022/10/21 01:36:48;;;;;;;23.25;15.80;;;;;;;12.38;100.00;100542.53;5266803;28;20032;-70
2022/10/21 01:39:37;;;;;;;21.70;16.23;;;;;;;12.42;100.00;100535.09;5267219;28;20032;-70
2022/10/21 01:42:24;;;;;;;24.33;16.63;;;;;;;12.38;100.00;100531.00;5268346;28;20508;-70
2022/10/21 01:45:15;;;;;;;21.48;14.73;;;;;;;12.31;100.00;100530.69;5268579;28;20555;-70
2022/10/21 01:47:52;;;;;;;22.08;15.23;;;;;;;12.36;100.00;100523.94;5267012;28;20036;-70
2022/10/21 01:50:26;;;;;;;24.73;15.20;;;;;;;12.28;100.00;100522.94;5270294;28;20039;-70
2022/10/21 01:53:00;;;;;;;;;;;;;;;12.29;100.00;100521.94;5275530;28;20031;-70
2022/10/21 01:55:31;;;;;;;23.73;14.43;;;;;;;12.21;100.00;100519.97;5272829;28;20003;-70
2022/10/21 01:58:10;;;;;;;19.55;13.07;;;;;;;12.17;100.00;100515.88;5273964;28;20051;-70
2022/10/21 02:00:42;;;;;;;21.98;14.15;;;;;;;12.21;100.00;100508.41;5269696;28;20024;-70
2022/10/21 02:03:22;;;;;;;20.55;13.30;;;;;;;12.20;100.00;100509.41;5277536;28;20031;-70
2022/10/21 02:05:53;;;;;;;20.63;14.70;;;;;;;12.08;100.00;100509.53;5267746;28;20060;-70
2022/10/21 02:08:25;;;;;;;17.73;11.88;;;;;;;11.98;100.00;100497.91;5273401;28;20115;-70
2022/10/21 02:11:00;;;;;;;25.38;12.45;;;;;;;11.92;100.00;100503.81;5273314;28;21210;-70
2022/10/21 02:14:01;;;;;;;18.50;12.38;;;;;;;12.05;100.00;100496.41;5264452;28;20458;-70
2022/10/21 02:16:37;;;;;;;15.93;11.55;;;;;;;11.88;100.00;100489.00;5266773;28;20167;-70
2022/10/21 02:19:17;;;;;;;19.92;12.75;;;;;;;11.96;100.00;100491.88;5266503;28;20027;-70
2022/10/21 02:21:51;;;;;;;18.70;12.68;;;;;;;11.83;100.00;100485.88;5272906;28;20062;-70
2022/10/21 02:24:25;;;;;;;17.98;11.55;;;;;;;11.81;100.00;100486.00;5264396;28;20038;-70
2022/10/21 02:26:57;;;;;;;20.33;12.75;;;;;;;11.90;100.00;100484.38;5275732;28;20031;-70
2022/10/21 02:29:33;;;;;;;20.38;13.30;;;;;;;11.83;100.00;100492.09;5272231;28;20391;-70
2022/10/21 02:32:23;;;;;;;18.08;11.77;;;;;;;11.74;100.00;100498.22;5273815;28;20085;-70
2022/10/21 02:35:31;;;;;;;21.17;14.38;;;;;;;11.86;100.00;100502.50;5272292;28;20024;-70
2022/10/21 02:38:10;;;;;;;19.77;13.98;;;;;;;11.82;100.00;100497.56;5262470;28;20089;-70
2022/10/21 02:40:47;;;;;;;22.20;13.52;;;;;;;11.82;100.00;100501.06;5285205;28;20034;-70
2022/10/21 02:43:24;;;;;;;23.33;14.35;;;;;;;11.87;100.00;100497.97;5282520;28;20712;-70
2022/10/21 02:46:00;;;;;;;19.60;13.73;;;;;;;11.87;100.00;100497.97;5292149;28;20386;-70
2022/10/21 02:48:32;;;;;;;20.92;13.50;;;;;;;11.84;100.00;100493.75;5279494;28;20430;-70
2022/10/21 02:51:06;;;;;;;23.55;14.88;;;;;;;11.81;100.00;100487.84;5282068;28;20020;-70
2022/10/21 02:53:37;;;;;;;20.93;13.17;;;;;;;11.76;100.00;100472.22;5269156;28;20047;-70
2022/10/21 02:56:08;;;;;;;18.92;13.18;;;;;;;11.82;100.00;100471.66;5267974;28;20570;-70
2022/10/21 02:58:40;;;;;;;15.45;11.65;;;;;;;11.74;100.00;100475.00;5268484;28;20040;-70
2022/10/21 03:01:11;;;;;;;25.55;12.75;;;;;;;11.69;100.00;100479.06;5287815;28;20024;-70
2022/10/21 03:03:42;;;;;;;20.38;12.27;;;;;;;11.69;100.00;100474.56;5267319;28;20044;-70
2022/10/21 03:06:14;;;;;;;19.13;13.30;;;;;;;11.71;100.00;100469.91;5272365;28;20554;-70
2022/10/21 03:08:45;;;;;;;17.80;12.57;;;;;;;11.75;100.00;100470.50;5269539;28;20039;-70
2022/10/21 03:11:16;;;;;;;16.27;11.45;;;;;;;11.63;100.00;100474.25;5270142;28;20035;-70
2022/10/21 03:13:47;;;;;;;17.80;11.15;;;;;;;11.67;100.00;100473.00;5268114;28;20523;-70
2022/10/21 03:16:19;;;;;;;19.05;11.57;;;;;;;11.57;100.00;100471.13;5270837;28;20642;-70
2022/10/21 03:18:50;;;;;;;16.98;11.25;;;;;;;11.64;100.00;100468.78;5265395;28;20041;-70
2022/10/21 03:21:21;;;;;;;21.85;11.68;;;;;;;11.61;100.00;100465.53;5271485;28;20044;-70
2022/10/21 03:23:53;;;;;;;20.25;12.38;;;;;;;11.66;100.00;100473.97;5268530;28;20115;-70
2022/10/21 03:26:24;;;;;;;16.05;10.95;;;;;;;11.56;100.00;100476.59;5271251;28;20024;-70
2022/10/21 03:28:55;;;;;;;17.35;12.07;;;;;;;11.60;100.00;100475.34;5272528;28;20052;-70
2022/10/21 03:31:26;;;;;;;20.02;11.68;;;;;;;11.62;100.00;100483.25;5266656;28;20083;-70
2022/10/21 03:33:58;;;;;;;20.02;11.85;;;;;;;11.54;100.00;100482.09;5273509;28;20039;-70
2022/10/21 03:36:29;;;;;;;20.17;11.30;;;;;;;11.57;100.00;100481.81;5273429;28;20038;-70
2022/10/21 03:39:00;;;;;;;20.00;12.18;;;;;;;11.47;100.00;100470.25;5275984;28;20193;-70
2022/10/21 03:41:31;;;;;;;18.98;11.43;;;;;;;11.52;100.00;100465.31;5274902;28;20382;-70
2022/10/21 03:44:03;;;;;;;18.58;11.93;;;;;;;11.57;100.00;100473.81;5284380;28;20726;-70
2022/10/21 03:46:34;;;;;;;20.90;11.82;;;;;;;11.52;100.00;100465.31;5276523;28;20517;-70
2022/10/21 03:49:05;;;;;;;20.90;11.75;;;;;;;11.48;100.00;100465.75;5278186;28;20376;-69
2022/10/21 03:51:36;;;;;;;18.55;11.65;;;;;;;11.50;100.00;100459.28;5271730;28;20699;-70
2022/10/21 03:54:08;;;;;;;17.25;11.35;;;;;;;11.51;100.00;100468.16;5273018;28;20525;-70
2022/10/21 03:56:39;;;;;;;21.38;11.90;;;;;;;11.45;100.00;100469.53;5285424;28;20054;-70
2022/10/21 03:59:10;;;;;;;22.55;11.50;;;;;;;11.49;100.00;100462.94;5289341;28;20032;-70
2022/10/21 04:01:42;;;;;;;21.15;12.13;;;;;;;11.43;100.00;100450.13;5289428;28;20031;-70
2022/10/21 04:04:13;;;;;;;17.65;10.65;;;;;;;11.40;100.00;100463.72;5292003;28;20091;-70
2022/10/21 04:06:44;;;;;;;12.32;9.43;;;;;;;11.38;100.00;100465.69;5294337;28;20741;-70
2022/10/21 04:09:16;;;;;;;15.85;9.20;;;;;;;11.44;100.00;100469.66;5284424;28;20032;-70
2022/10/21 04:11:47;;;;;;;15.88;9.75;;;;;;;11.41;100.00;100468.09;5292782;28;20077;-70
2022/10/21 04:14:18;;;;;;;15.95;9.85;;;;;;;11.41;100.00;100465.44;5293550;28;20591;-70
2022/10/21 04:16:50;;;;;;;19.63;9.70;;;;;;;11.31;100.00;100464.50;5285099;28;20462;-70
2022/10/21 04:19:21;;;;;;;15.07;9.77;;;;;;;11.30;100.00;100471.69;5291110;28;20455;-69
2022/10/21 04:21:52;;;;;;;18.27;9.82;;;;;;;11.28;100.00;100460.28;5292858;28;20056;-70
2022/10/21 04:24:23;;;;;;;14.50;9.00;;;;;;;11.36;100.00;100459.63;5284740;28;20027;-70
2022/10/21 04:26:55;;;;;;;12.40;8.75;;;;;;;11.29;100.00;100455.78;5291203;28;20502;-70
2022/10/21 04:29:26;;;;;;;12.65;8.15;;;;;;;11.27;100.00;100458.59;5290413;28;20511;-70
2022/10/21 04:31:57;;;;;;;14.43;8.50;;;;;;;11.21;100.00;100458.28;5285250;28;20028;-70
2022/10/21 04:34:29;;;;;;;13.45;9.18;;;;;;;11.26;100.00;100472.94;5292858;28;20077;-70
2022/10/21 04:37:00;;;;;;;15.85;9.30;;;;;;;11.23;100.00;100475.84;5288040;28;20020;-70
2022/10/21 04:39:31;;;;;;;13.45;8.48;;;;;;;11.17;100.00;100471.88;5285383;28;20570;-69
2022/10/21 04:42:03;;;;;;;16.25;8.52;;;;;;;11.21;100.00;100469.81;5285994;28;20036;-69
2022/10/21 04:44:38;;;;;;;12.75;7.80;;;;;;;11.25;100.00;100475.72;5287786;28;20079;-70
2022/10/21 04:47:09;;;;;;;18.95;9.07;;;;;;;11.28;100.00;100480.81;5284674;28;20469;-70
2022/10/21 04:49:40;;;;;;;14.07;7.75;;;;;;;11.32;100.00;100488.44;5287948;28;20035;-70
2022/10/21 04:52:12;;;;;;;11.90;7.65;;;;;;;11.24;100.00;100474.03;5292533;28;20092;-70
2022/10/21 04:54:43;;;;;;;11.88;7.43;;;;;;;11.25;100.00;100470.38;5289751;28;20035;-69
2022/10/21 04:57:14;;;;;;;16.33;7.75;;;;;;;11.24;100.00;100463.34;5288807;28;20075;-70
2022/10/21 04:59:45;;;;;;;14.32;7.07;;;;;;;11.27;100.00;100463.09;5281973;28;20089;-70
2022/10/21 05:02:17;;;;;;;12.48;7.35;;;;;;;11.28;100.00;100467.47;5289803;28;20031;-69
2022/10/21 05:04:48;;;;;;;17.70;7.18;;;;;;;11.19;100.00;100464.59;5296542;28;20413;-70
2022/10/21 05:07:19;;;;;;;13.77;7.28;;;;;;;11.23;100.00;100454.50;5280137;28;20056;-69
2022/10/21 05:09:51;;;;;;;12.60;7.07;;;;;;;11.29;100.00;100461.13;5284975;28;20519;-69
2022/10/21 05:12:22;;;;;;;9.68;6.32;;;;;;;11.28;100.00;100464.78;5291960;28;20032;-70
2022/10/21 05:14:53;;;;;;;15.18;7.20;;;;;;;11.30;100.00;100463.69;5292907;28;20469;-70
2022/10/21 05:17:25;;;;;;;12.00;5.97;;;;;;;11.28;100.00;100459.47;5276920;28;20052;-69
2022/10/21 05:19:56;;;;;;;11.63;6.55;;;;;;;11.25;100.00;100455.19;5287836;28;20028;-70
2022/10/21 05:22:27;;;;;;;10.38;6.65;;;;;;;11.35;100.00;100455.25;5283563;28;20038;-70
2022/10/21 05:24:59;;;;;;;11.23;6.05;;;;;;;11.28;100.00;100454.94;5295209;28;20060;-69
2022/10/21 05:27:30;;;;;;;11.60;6.32;;;;;;;11.29;100.00;100442.44;5277398;28;20028;-70
2022/10/21 05:30:03;;;;;;;9.88;6.13;;;;;;;11.25;100.00;100447.19;5291929;28;20035;-70
2022/10/21 05:32:34;;;;;;;10.05;6.03;;;;;;;11.33;100.00;100447.41;5283488;28;20031;-70
2022/10/21 05:35:06;;;;;;;9.63;6.20;;;;;;;11.29;100.00;100439.75;5294025;28;20401;-70
2022/10/21 05:37:37;;;;;;;11.18;6.18;;;;;;;11.24;100.00;100433.97;5268714;28;20028;-70
2022/10/21 05:40:09;;;;;;;12.82;5.70;;;;;;;11.22;100.00;100427.91;5285176;28;20035;-70
2022/10/21 05:42:40;;;;;;;13.50;5.63;;;;;;;11.24;100.00;100426.81;5284801;28;20032;-69
2022/10/21 05:45:12;;;;;;;10.93;5.53;;;;;;;11.23;100.00;100429.63;5290999;28;20394;-68
2022/10/21 05:47:43;;;;;;;8.50;5.57;;;;;;;11.26;100.00;100432.88;5275835;28;20028;-68
2022/10/21 05:50:14;;;;;;;10.23;5.30;;;;;;;11.19;100.00;100427.19;5285742;28;20482;-68
2022/10/21 05:52:46;;;;;;;9.13;5.53;;;;;;;11.14;100.00;100421.44;5272070;28;20040;-70
2022/10/21 05:55:17;;;;;;;9.90;5.85;;;;;;;11.11;100.00;100421.69;5279382;28;20029;-70
2022/10/21 05:57:48;;;;;;;10.25;5.30;;;;;;;11.17;100.00;100413.13;5279489;28;20051;-70
2022/10/21 06:00:19;;;;;;;11.90;5.57;;;;;;;11.12;100.00;100422.53;5280518;28;20020;-70
2022/10/21 06:02:51;;;;;;;9.10;5.70;;;;;;;11.18;100.00;100422.00;5279728;28;20019;-70
2022/10/21 06:05:22;;;;;;;9.50;5.22;;;;;;;11.09;100.00;100428.13;5282777;28;20036;-70
2022/10/21 06:07:53;;;;;;;9.77;5.20;;;;;;;11.05;100.00;100429.38;5265128;28;20029;-70
2022/10/21 06:10:25;;;;;;;7.90;5.25;;;;;;;11.11;100.00;100423.50;5283316;28;20496;-69
2022/10/21 06:12:56;;;;;;;9.25;4.63;;;;;;;11.08;100.00;100427.25;5264135;28;20483;-70
2022/10/21 06:15:27;;;;;;;6.43;4.47;;;;;;;11.09;100.00;100425.47;5286070;28;20863;-69
2022/10/21 06:17:58;;;;;;;12.98;5.43;;;;;;;11.15;100.00;100422.28;5279131;28;20046;-70
2022/10/21 06:20:30;;;;;;;8.60;5.10;;;;;;;11.03;100.00;100410.81;5283490;28;20664;-70
2022/10/21 06:23:01;;;;;;;8.00;5.00;;;;;;;11.05;100.00;100422.22;5287127;28;20040;-70
2022/10/21 06:25:32;;;;;;;9.50;4.85;;;;;;;11.06;100.00;100415.03;5270905;28;20032;-70
2022/10/21 06:28:03;;;;;;;9.10;4.53;;;;;;;11.12;100.00;100415.38;5258793;28;20023;-69
2022/10/21 06:30:35;;;;;;;8.15;4.97;;;;;;;11.03;100.00;100421.50;5278865;28;20031;-69
2022/10/21 06:33:06;;;;;;;10.63;4.82;;;;;;;11.01;100.00;100419.91;5283272;28;20031;-68
2022/10/21 06:35:37;;;;;;;12.02;5.07;;;;;;;11.19;100.00;100419.19;5291156;28;20043;-68
2022/10/21 06:38:08;;;;;;;13.30;5.45;;;;;;;11.18;100.00;100424.69;5278289;28;20427;-70
2022/10/21 06:40:41;;;;;;;12.18;5.55;;;;;;;11.21;100.00;100432.41;5279772;28;20020;-70
2022/10/21 06:43:12;;;;;;;10.48;5.45;;;;;;;11.17;100.00;100431.81;5281516;28;20040;-69
2022/10/21 06:45:43;;;;;;;11.68;5.70;;;;;;;11.18;100.00;100438.03;5271593;28;20025;-69
2022/10/21 06:48:14;;;;;;;11.48;5.32;;;;;;;11.24;100.00;100444.66;5274137;28;20020;-68
2022/10/21 06:50:46;;;;;;;12.65;5.90;;;;;;;11.19;100.00;100445.06;5293953;28;20457;-70
2022/10/21 06:53:17;;;;;;;14.20;5.70;;;;;;;11.33;100.00;100459.88;5278125;28;20057;-69
2022/10/21 06:55:48;;;;;;;12.55;5.93;;;;;;;11.27;100.00;100447.91;5280518;28;20077;-70
2022/10/21 06:58:19;;;;;;;12.20;6.38;;;;;;;11.33;100.00;100458.09;5291552;28;20042;-69
2022/10/21 07:00:51;;;;;;;9.38;5.05;;;;;;;11.39;100.00;100467.41;5288703;28;20020;-70
2022/10/21 07:03:22;;;;;;;13.23;5.93;;;;;;;11.40;100.00;100474.41;5284978;28;20035;-69
2022/10/21 07:05:58;;;;;;;12.50;5.40;;;;;;;11.44;100.00;100470.50;5290658;28;20043;-70
2022/10/21 07:08:31;;;;;;;15.35;5.05;;;;;;;11.53;100.00;100480.41;5286351;28;20033;-70
2022/10/21 07:11:03;;;;;;;9.68;4.82;;;;;;;11.63;100.00;100482.28;5277617;28;20069;-69
2022/10/21 07:13:34;;;;;;;14.48;5.43;;;;;;;11.58;100.00;100488.88;5289274;28;20058;-70
2022/10/21 07:16:13;;;;;;;9.50;5.00;;;;;;;11.65;100.00;100491.84;5289445;28;20096;-70
2022/10/21 07:18:44;;;;;;;12.60;5.40;;;;;;;11.80;100.00;100492.34;5292485;28;20031;-70
2022/10/21 07:21:19;;;;;;;17.23;5.20;;;;;;;11.73;100.00;100494.69;5294408;28;20386;-70
2022/10/21 07:23:52;;;;;;;12.98;5.00;;;;;;;11.82;100.00;100485.03;5296281;28;20473;-70
2022/10/21 07:26:24;;;;;;;11.18;4.72;;;;;;;11.88;100.00;100494.34;5289432;28;20402;-70
2022/10/21 07:28:57;;;;;;;10.20;4.85;;;;;;;11.85;100.00;100492.78;5292918;28;20028;-70
2022/10/21 07:31:33;;;;;;;9.23;4.78;;;;;;;11.94;100.00;100488.47;5287536;28;20031;-70
2022/10/21 07:34:05;;;;;;;11.23;4.85;;;;;;;11.91;100.00;100492.28;5288005;28;20100;-70
2022/10/21 07:36:40;;;;;;;7.78;4.88;;;;;;;11.93;100.00;100493.00;5296019;28;20032;-70
2022/10/21 07:39:14;;;;;;;10.32;4.68;;;;;;;12.11;100.00;100492.34;5283489;28;20055;-70
2022/10/21 07:41:48;;;;;;;7.88;4.30;;;;;;;12.20;100.00;100496.88;5292003;28;20028;-70
2022/10/21 07:44:22;;;;;;;11.73;4.70;;;;;;;12.27;100.00;100507.88;5292301;28;20051;-70
2022/10/21 07:46:54;;;;;;;11.13;5.43;;;;;;;12.24;100.00;100508.16;5287615;28;20027;-70
2022/10/21 07:49:25;;;;;;;9.10;5.22;;;;;;;12.29;100.00;100508.56;5289794;28;20024;-70
2022/10/21 07:51:56;;;;;;;10.55;5.30;;;;;;;12.33;100.00;100515.34;5289864;28;20035;-70
2022/10/21 07:54:28;;;;;;;9.05;5.00;;;;;;;12.41;100.00;100515.53;5284681;28;20032;-70
2022/10/21 07:56:59;;;;;;;11.00;5.53;;;;;;;12.44;100.00;100514.38;5290074;28;20047;-70
2022/10/21 07:59:30;;;;;;;12.25;5.50;;;;;;;12.45;100.00;100524.13;5292052;28;20062;-70
2022/10/21 08:02:01;;;;;;;11.32;5.97;;;;;;;12.54;100.00;100518.78;5291963;28;20035;-70
2022/10/21 08:04:33;;;;;;;12.10;6.70;;;;;;;12.47;100.00;100511.44;5284685;28;20059;-70
2022/10/21 08:07:04;;;;;;;13.82;5.85;;;;;;;12.60;100.00;100517.38;5282411;28;20062;-70
2022/10/21 08:09:36;;;;;;;14.80;6.63;;;;;;;12.50;100.00;100505.81;5287960;28;20516;-70
2022/10/21 08:12:07;;;;;;;11.70;6.32;;;;;;;12.58;100.00;100507.78;5284385;28;20028;-70
2022/10/21 08:14:39;;;;;;;12.82;6.10;;;;;;;12.62;100.00;100495.81;5290848;28;20030;-70
2022/10/21 08:17:10;;;;;;;11.27;6.53;;;;;;;12.60;100.00;100506.69;5288396;28;20064;-70
2022/10/21 08:19:42;;;;;;;13.45;7.10;;;;;;;12.68;100.00;100506.00;5290007;28;20043;-70
2022/10/21 08:22:13;;;;;;;12.73;6.55;;;;;;;12.74;100.00;100494.72;5289783;28;20032;-70
2022/10/21 08:24:44;;;;;;;11.65;6.05;;;;;;;12.79;100.00;100503.19;5292118;28;20035;-70
2022/10/21 08:27:16;;;;;;;12.52;7.53;;;;;;;12.67;100.00;100526.53;5289132;28;20119;-70
2022/10/21 08:29:47;;;;;;;19.55;12.50;;;;;;;12.70;100.00;100528.94;5287042;28;20027;-70
2022/10/21 08:32:18;;;;;;;17.35;12.82;;;;;;;12.78;100.00;100519.38;5290266;28;20040;-70
2022/10/21 08:34:50;;;;;;;16.75;9.82;;;;;;;12.70;100.00;100528.94;5290247;28;20059;-70
2022/10/21 08:37:21;;;;;;;14.68;8.85;;;;;;;12.73;100.00;100526.00;5294396;28;20122;-70
2022/10/21 08:39:52;;;;;;;13.95;6.63;;;;;;;12.72;100.00;100521.63;5293298;28;20039;-70
2022/10/21 08:42:24;;;;;;;12.75;7.00;;;;;;;12.74;100.00;100525.00;5289600;28;20366;-70
2022/10/21 08:45:02;;;;;;;15.48;9.65;;;;;;;12.78;100.00;100540.78;5283982;28;21370;-70
2022/10/21 08:47:46;;;;;;;16.45;10.98;;;;;;;12.76;100.00;100535.56;5267362;28;20986;-70
2022/10/21 08:50:21;;;;;;;18.63;12.65;;;;;;;12.80;100.00;100528.13;5276915;28;20162;-69
2022/10/21 08:52:57;;;;;;;20.67;13.20;;;;;;;12.78;100.00;100540.78;5270456;28;20020;-70
2022/10/21 08:55:38;;;;;;;13.45;9.23;;;;;;;12.89;100.00;100538.81;5289470;28;20549;-70
2022/10/21 08:58:22;;;;;;;14.27;7.95;;;;;;;12.88;100.00;100547.84;5279697;28;20452;-70
2022/10/21 09:01:00;;;;;;;12.43;7.00;;;;;;;12.84;100.00;100556.28;5285136;28;20075;-70
2022/10/21 09:03:53;;;;;;;16.95;6.85;;;;;;;12.90;100.00;100543.19;5285480;28;20113;-70
2022/10/21 09:06:33;;;;;;;13.30;7.38;;;;;;;12.89;100.00;100562.94;5281606;28;20127;-70
2022/10/21 09:09:10;;;;;;;10.95;6.35;;;;;;;12.91;100.00;100549.41;5280543;28;20028;-69
2022/10/21 09:12:02;;;;;;;13.90;6.70;;;;;;;12.91;100.00;100557.44;5270846;28;20032;-70
2022/10/21 09:15:11;;;;;;;12.82;6.10;;;;;;;12.95;100.00;100553.50;5270103;28;20043;-70
2022/10/21 09:17:52;;;;;;;12.63;6.68;;;;;;;12.97;100.00;100545.31;5270943;28;20024;-71
2022/10/21 09:20:45;;;;;;;13.07;5.55;;;;;;;12.97;100.00;100522.06;5277552;28;20049;-72
2022/10/21 09:23:39;;;;;;;5.97;2.92;;;;;;;13.05;100.00;100526.72;5289634;28;20062;-71
2022/10/21 09:26:34;;;;;;;4.60;1.85;;;;;;;13.18;100.00;100534.47;5289634;28;20054;-71
2022/10/21 09:29:23;;;;;;;6.30;2.30;;;;;;;13.26;100.00;100539.94;5279672;28;20118;-70
2022/10/21 09:32:26;;;;;;;6.35;2.97;;;;;;;13.37;100.00;100542.50;5282126;28;20020;-70
2022/10/21 09:35:03;;;;;;;5.18;2.75;;;;;;;13.43;100.00;100530.38;5284642;28;20111;-70
2022/10/21 09:37:40;;;;;;;8.07;3.47;;;;;;;13.49;100.00;100530.63;5279294;28;20027;-71
2022/10/21 09:40:27;;;;;;;7.80;3.72;;;;;;;13.58;100.00;100530.78;5288635;28;20521;-71
2022/10/21 09:43:00;;;;;;;5.65;3.72;;;;;;;13.69;100.00;100531.44;5287995;28;20111;-71
2022/10/21 09:45:37;;;;;;;7.90;4.13;;;;;;;13.73;100.00;100535.53;5287516;28;20118;-71
2022/10/21 09:48:42;;;;;;;9.25;4.90;;;;;;;13.87;100.00;100528.84;5277463;28;20028;-71
2022/10/21 09:51:19;;;;;;;7.87;4.07;;;;;;;13.87;100.00;100536.06;5278223;28;20041;-71
2022/10/21 09:53:57;;;;;;;9.15;4.05;;;;;;;14.10;100.00;100539.22;5281837;28;20028;-70
2022/10/21 09:56:55;;;;;;;9.98;4.75;;;;;;;14.05;100.00;100534.25;5277306;28;20123;-70
2022/10/21 09:59:27;;;;;;;9.63;4.80;;;;;;;14.21;100.00;100547.06;5269826;28;20043;-70
2022/10/21 10:02:14;;;;;;;9.98;5.20;;;;;;;14.21;100.00;100539.00;5277138;28;20773;-71
2022/10/21 10:04:45;;;;;;;15.05;5.90;;;;;;;14.17;100.00;100544.81;5282344;28;20065;-71
2022/10/21 10:07:35;;;;;;;14.10;6.30;;;;;;;14.28;100.00;100536.56;5277856;28;20103;-70
2022/10/21 10:10:31;;;;;;;13.32;5.85;;;;;;;14.31;100.00;100536.28;5275381;28;20111;-70
2022/10/21 10:13:02;;;;;;;15.95;5.90;;;;;;;14.43;100.00;100544.97;5273480;28;20719;-71
2022/10/21 10:15:35;;;;;;;12.25;6.47;;;;;;;14.40;100.00;100554.19;5289070;28;20089;-71
2022/10/21 10:18:19;;;;;;;13.25;5.88;;;;;;;14.52;100.00;100555.66;5291489;28;20467;-71
2022/10/21 10:21:23;;;;;;;12.35;6.68;;;;;;;14.57;100.00;100555.22;5285711;28;20035;-71
2022/10/21 10:23:55;;;;;;;11.45;6.20;;;;;;;14.63;100.00;100561.84;5238909;28;20040;-72
2022/10/21 10:26:37;;;;;;;11.80;5.93;;;;;;;14.67;100.00;100558.72;5288151;28;20024;-71
2022/10/21 10:29:26;;;;;;;13.40;7.05;;;;;;;14.75;100.00;100557.13;5282218;28;20074;-71
2022/10/21 10:32:00;;;;;;;13.70;7.60;;;;;;;14.93;100.00;100554.44;5280538;28;20553;-71
2022/10/21 10:34:35;;;;;;;15.88;8.73;;;;;;;14.93;100.00;100557.97;5280135;28;20028;-71
2022/10/21 10:37:17;;;;;;;15.70;9.00;;;;;;;14.96;100.00;100552.28;5284711;28;20409;-71
2022/10/21 10:39:54;;;;;;;14.65;8.73;;;;;;;14.97;100.00;100551.28;5291009;28;20099;-71
2022/10/21 10:42:32;;;;;;;20.15;9.18;;;;;;;15.05;100.00;100555.88;5291364;28;20134;-71
2022/10/21 10:45:21;;;;;;;17.30;8.88;;;;;;;15.07;100.00;100552.06;5272850;28;20032;-71
2022/10/21 10:47:56;;;;;;;17.55;8.45;;;;;;;15.16;100.00;100557.50;5282634;28;20508;-71
2022/10/21 10:50:36;;;;;;;27.90;10.07;;;;;;;15.25;100.00;100559.28;5284207;28;20451;-71
2022/10/21 10:53:42;;;;;;;14.38;8.40;;;;;;;15.24;100.00;100555.72;5286411;28;20135;-71
2022/10/21 10:56:21;;;;;;;13.32;7.47;;;;;;;15.37;100.00;100555.31;5282124;28;20054;-71
2022/10/21 10:59:05;;;;;;;12.77;6.47;;;;;;;15.46;100.00;100556.25;5284349;28;20047;-71
2022/10/21 11:01:45;;;;;;;17.50;7.80;;;;;;;15.53;100.00;100559.13;5274990;28;20044;-71
2022/10/21 11:04:24;;;;;;;16.08;7.63;;;;;;;15.55;100.00;100549.94;5280421;28;20032;-71
2022/10/21 11:07:06;;;;;;;15.57;8.00;;;;;;;15.59;100.00;100545.06;5290389;28;20042;-71
2022/10/21 11:09:38;;;;;;;14.95;9.15;;;;;;;15.57;100.00;100536.31;5277816;28;20038;-71
2022/10/21 11:12:19;;;;;;;16.15;9.10;;;;;;;15.54;100.00;100529.41;5271527;28;20027;-70
2022/10/21 11:14:53;;;;;;;12.90;7.32;;;;;;;15.48;100.00;100533.56;5280782;28;20031;-71
2022/10/21 11:17:33;;;;;;;12.95;6.88;;;;;;;15.55;100.00;100525.72;5282573;28;20377;-72
2022/10/21 11:20:33;;;;;;;11.30;5.80;;;;;;;15.57;100.00;100521.03;5292450;28;20070;-71
2022/10/21 11:23:43;;;;;;;10.05;5.85;;;;;;;15.57;100.00;100526.41;5279228;28;20062;-70
2022/10/21 11:26:21;;;;;;;11.93;6.47;;;;;;;15.56;100.00;100535.47;5288061;28;20466;-71
2022/10/21 11:29:06;;;;;;;7.68;4.72;;;;;;;15.68;100.00;100536.88;5272336;28;20192;-71
2022/10/21 11:32:04;;;;;;;8.93;4.75;;;;;;;15.64;100.00;100546.28;5276549;28;20045;-70
2022/10/21 11:34:44;;;;;;;10.73;4.65;;;;;;;15.70;100.00;100555.56;5285411;28;20063;-70
2022/10/21 11:37:25;;;;;;;8.95;3.78;;;;;;;15.67;100.00;100550.50;5287915;28;20040;-72
2022/10/21 11:40:09;;;;;;;8.35;4.03;;;;;;;15.67;100.00;100547.81;5284399;28;20026;-71
2022/10/21 11:42:44;;;;;;;7.95;3.97;;;;;;;15.67;100.00;100545.13;5275696;28;20060;-71
2022/10/21 11:46:06;;;;;;;8.02;3.28;;;;;;;15.71;100.00;100549.19;5281171;28;20024;-71